sensor_id;sensor_type;location;lat;lon;timestamp;P1;durP1;ratioP1;P2;durP2;ratioP2
70725;SDS011;58304;53.104;6.022;2023-03-01T00:01:23;15.77;;;4.20;;
70725;SDS011;58304;53.104;6.022;2023-03-01T00:03:51;15.80;;;4.35;;
70725;SDS011;58304;53.104;6.022;2023-03-01T00:06:18;14.52;;;3.42;;
70725;SDS011;58304;53.104;6.022;2023-03-01T00:08:44;5.65;;;2.42;;
70725;SDS011;58304;53.104;6.022;2023-03-01T00:11:12;4.32;;;2.40;;
70725;SDS011;58304;53.104;6.022;2023-03-01T00:13:40;4.90;;;2.60;;
70725;SDS011;58304;53.104;6.022;2023-03-01T00:16:07;4.78;;;2.40;;
70725;SDS011;58304;53.104;6.022;2023-03-01T00:18:35;5.30;;;2.80;;
70725;SDS011;58304;53.104;6.022;2023-03-01T00:21:00;6.20;;;3.15;;
70725;SDS011;58304;53.104;6.022;2023-03-01T00:23:26;6.20;;;2.75;;
70725;SDS011;58304;53.104;6.022;2023-03-01T00:25:52;5.40;;;2.78;;
70725;SDS011;58304;53.104;6.022;2023-03-01T00:28:18;5.05;;;2.90;;
70725;SDS011;58304;53.104;6.022;2023-03-01T00:33:10;4.88;;;2.53;;
70725;SDS011;58304;53.104;6.022;2023-03-01T00:35:36;7.13;;;3.15;;
70725;SDS011;58304;53.104;6.022;2023-03-01T00:38:02;6.40;;;3.47;;
70725;SDS011;58304;53.104;6.022;2023-03-01T00:40:29;27.88;;;4.13;;
70725;SDS011;58304;53.104;6.022;2023-03-01T00:42:56;6.45;;;3.17;;
70725;SDS011;58304;53.104;6.022;2023-03-01T00:45:22;20.38;;;4.00;;
70725;SDS011;58304;53.104;6.022;2023-03-01T00:47:48;6.13;;;3.17;;
70725;SDS011;58304;53.104;6.022;2023-03-01T00:50:14;8.65;;;3.88;;
70725;SDS011;58304;53.104;6.022;2023-03-01T00:52:40;6.68;;;3.55;;
70725;SDS011;58304;53.104;6.022;2023-03-01T00:55:06;21.20;;;3.70;;
70725;SDS011;58304;53.104;6.022;2023-03-01T00:59:58;5.45;;;2.92;;
70725;SDS011;58304;53.104;6.022;2023-03-01T01:02:24;8.65;;;2.95;;
70725;SDS011;58304;53.104;6.022;2023-03-01T01:04:50;49.00;;;3.25;;
70725;SDS011;58304;53.104;6.022;2023-03-01T01:07:15;5.85;;;3.20;;
70725;SDS011;58304;53.104;6.022;2023-03-01T01:09:41;5.45;;;2.92;;
70725;SDS011;58304;53.104;6.022;2023-03-01T01:12:07;5.25;;;2.80;;
70725;SDS011;58304;53.104;6.022;2023-03-01T01:14:33;5.40;;;2.65;;
70725;SDS011;58304;53.104;6.022;2023-03-01T01:16:59;5.60;;;2.95;;
70725;SDS011;58304;53.104;6.022;2023-03-01T01:19:24;12.13;;;2.92;;
70725;SDS011;58304;53.104;6.022;2023-03-01T01:21:50;5.47;;;2.85;;
70725;SDS011;58304;53.104;6.022;2023-03-01T01:24:16;6.30;;;3.00;;
70725;SDS011;58304;53.104;6.022;2023-03-01T01:26:42;12.27;;;3.03;;
70725;SDS011;58304;53.104;6.022;2023-03-01T01:29:08;5.55;;;3.00;;
70725;SDS011;58304;53.104;6.022;2023-03-01T01:31:35;5.78;;;3.22;;
70725;SDS011;58304;53.104;6.022;2023-03-01T01:34:03;11.07;;;3.22;;
70725;SDS011;58304;53.104;6.022;2023-03-01T01:36:30;29.20;;;3.67;;
70725;SDS011;58304;53.104;6.022;2023-03-01T01:41:23;7.90;;;2.92;;
70725;SDS011;58304;53.104;6.022;2023-03-01T01:46:45;10.73;;;2.58;;
70725;SDS011;58304;53.104;6.022;2023-03-01T01:51:55;7.72;;;2.90;;
70725;SDS011;58304;53.104;6.022;2023-03-01T01:54:41;8.82;;;2.63;;
70725;SDS011;58304;53.104;6.022;2023-03-01T01:57:13;12.68;;;3.50;;
70725;SDS011;58304;53.104;6.022;2023-03-01T01:59:43;6.00;;;3.17;;
70725;SDS011;58304;53.104;6.022;2023-03-01T02:02:14;6.20;;;3.00;;
70725;SDS011;58304;53.104;6.022;2023-03-01T02:04:40;13.68;;;2.92;;
70725;SDS011;58304;53.104;6.022;2023-03-01T02:07:09;5.10;;;3.05;;
70725;SDS011;58304;53.104;6.022;2023-03-01T02:09:46;9.85;;;2.75;;
70725;SDS011;58304;53.104;6.022;2023-03-01T02:12:19;8.98;;;2.92;;
70725;SDS011;58304;53.104;6.022;2023-03-01T02:14:47;5.03;;;2.67;;
70725;SDS011;58304;53.104;6.022;2023-03-01T02:17:14;6.00;;;3.05;;
70725;SDS011;58304;53.104;6.022;2023-03-01T02:19:44;17.67;;;3.05;;
70725;SDS011;58304;53.104;6.022;2023-03-01T02:22:24;6.72;;;3.00;;
70725;SDS011;58304;53.104;6.022;2023-03-01T02:30:44;5.13;;;2.80;;
70725;SDS011;58304;53.104;6.022;2023-03-01T02:33:31;5.78;;;2.53;;
70725;SDS011;58304;53.104;6.022;2023-03-01T02:36:01;4.90;;;2.70;;
70725;SDS011;58304;53.104;6.022;2023-03-01T02:38:36;6.60;;;2.22;;
70725;SDS011;58304;53.104;6.022;2023-03-01T02:41:02;5.53;;;2.88;;
70725;SDS011;58304;53.104;6.022;2023-03-01T02:43:30;4.43;;;2.47;;
70725;SDS011;58304;53.104;6.022;2023-03-01T02:46:03;5.07;;;2.72;;
70725;SDS011;58304;53.104;6.022;2023-03-01T02:48:43;5.50;;;2.70;;
70725;SDS011;58304;53.104;6.022;2023-03-01T02:51:33;5.07;;;2.65;;
70725;SDS011;58304;53.104;6.022;2023-03-01T02:56:53;5.95;;;2.58;;
70725;SDS011;58304;53.104;6.022;2023-03-01T02:59:22;4.88;;;2.60;;
70725;SDS011;58304;53.104;6.022;2023-03-01T03:01:51;4.85;;;2.95;;
70725;SDS011;58304;53.104;6.022;2023-03-01T03:04:18;5.15;;;2.65;;
70725;SDS011;58304;53.104;6.022;2023-03-01T03:06:46;4.80;;;2.65;;
70725;SDS011;58304;53.104;6.022;2023-03-01T03:09:13;6.05;;;2.58;;
70725;SDS011;58304;53.104;6.022;2023-03-01T03:11:39;5.32;;;2.63;;
70725;SDS011;58304;53.104;6.022;2023-03-01T03:14:06;4.47;;;2.47;;
70725;SDS011;58304;53.104;6.022;2023-03-01T03:16:37;5.38;;;2.60;;
70725;SDS011;58304;53.104;6.022;2023-03-01T03:19:05;6.28;;;3.00;;
70725;SDS011;58304;53.104;6.022;2023-03-01T03:21:31;11.63;;;4.55;;
70725;SDS011;58304;53.104;6.022;2023-03-01T03:23:58;12.25;;;5.05;;
70725;SDS011;58304;53.104;6.022;2023-03-01T03:26:23;12.25;;;5.10;;
70725;SDS011;58304;53.104;6.022;2023-03-01T03:28:49;10.82;;;5.28;;
70725;SDS011;58304;53.104;6.022;2023-03-01T03:31:15;23.65;;;5.72;;
70725;SDS011;58304;53.104;6.022;2023-03-01T03:33:41;7.18;;;3.70;;
70725;SDS011;58304;53.104;6.022;2023-03-01T03:36:07;16.70;;;5.63;;
70725;SDS011;58304;53.104;6.022;2023-03-01T03:38:37;28.23;;;5.60;;
70725;SDS011;58304;53.104;6.022;2023-03-01T03:41:05;35.28;;;5.95;;
70725;SDS011;58304;53.104;6.022;2023-03-01T03:43:33;20.10;;;6.40;;
70725;SDS011;58304;53.104;6.022;2023-03-01T03:46:01;35.90;;;5.35;;
70725;SDS011;58304;53.104;6.022;2023-03-01T03:48:30;23.73;;;5.82;;
70725;SDS011;58304;53.104;6.022;2023-03-01T03:50:58;10.98;;;5.40;;
70725;SDS011;58304;53.104;6.022;2023-03-01T03:53:24;21.40;;;5.53;;
70725;SDS011;58304;53.104;6.022;2023-03-01T03:55:51;33.35;;;5.32;;
70725;SDS011;58304;53.104;6.022;2023-03-01T03:58:18;13.05;;;4.72;;
70725;SDS011;58304;53.104;6.022;2023-03-01T04:00:47;9.63;;;4.75;;
70725;SDS011;58304;53.104;6.022;2023-03-01T04:03:14;20.33;;;5.22;;
70725;SDS011;58304;53.104;6.022;2023-03-01T04:05:41;11.20;;;5.30;;
70725;SDS011;58304;53.104;6.022;2023-03-01T04:08:07;11.05;;;4.82;;
70725;SDS011;58304;53.104;6.022;2023-03-01T04:10:35;12.35;;;4.72;;
70725;SDS011;58304;53.104;6.022;2023-03-01T04:13:06;8.48;;;4.47;;
70725;SDS011;58304;53.104;6.022;2023-03-01T04:15:34;9.77;;;5.03;;
70725;SDS011;58304;53.104;6.022;2023-03-01T04:18:00;16.52;;;5.00;;
70725;SDS011;58304;53.104;6.022;2023-03-01T04:20:27;10.90;;;5.05;;
70725;SDS011;58304;53.104;6.022;2023-03-01T04:23:02;10.57;;;5.18;;
70725;SDS011;58304;53.104;6.022;2023-03-01T04:25:45;7.78;;;4.45;;
70725;SDS011;58304;53.104;6.022;2023-03-01T04:28:11;8.77;;;4.65;;
70725;SDS011;58304;53.104;6.022;2023-03-01T04:30:37;9.40;;;4.82;;
70725;SDS011;58304;53.104;6.022;2023-03-01T04:33:07;7.65;;;4.28;;
70725;SDS011;58304;53.104;6.022;2023-03-01T04:35:34;9.45;;;5.30;;
70725;SDS011;58304;53.104;6.022;2023-03-01T04:38:01;9.63;;;4.97;;
70725;SDS011;58304;53.104;6.022;2023-03-01T04:40:27;9.18;;;4.80;;
70725;SDS011;58304;53.104;6.022;2023-03-01T04:42:53;34.67;;;5.97;;
70725;SDS011;58304;53.104;6.022;2023-03-01T04:45:18;39.78;;;5.68;;
70725;SDS011;58304;53.104;6.022;2023-03-01T04:47:45;63.15;;;6.65;;
70725;SDS011;58304;53.104;6.022;2023-03-01T04:50:13;92.60;;;6.38;;
70725;SDS011;58304;53.104;6.022;2023-03-01T04:52:42;11.88;;;4.60;;
70725;SDS011;58304;53.104;6.022;2023-03-01T04:55:09;19.33;;;5.20;;
70725;SDS011;58304;53.104;6.022;2023-03-01T04:57:35;14.30;;;5.10;;
70725;SDS011;58304;53.104;6.022;2023-03-01T05:00:01;9.95;;;4.97;;
70725;SDS011;58304;53.104;6.022;2023-03-01T05:02:44;8.30;;;4.53;;
70725;SDS011;58304;53.104;6.022;2023-03-01T05:05:21;10.90;;;5.00;;
70725;SDS011;58304;53.104;6.022;2023-03-01T05:07:59;9.27;;;4.80;;
70725;SDS011;58304;53.104;6.022;2023-03-01T05:10:26;9.98;;;4.82;;
70725;SDS011;58304;53.104;6.022;2023-03-01T05:12:56;9.57;;;4.60;;
70725;SDS011;58304;53.104;6.022;2023-03-01T05:15:23;9.77;;;4.82;;
70725;SDS011;58304;53.104;6.022;2023-03-01T05:17:54;10.57;;;4.70;;
70725;SDS011;58304;53.104;6.022;2023-03-01T05:20:21;10.80;;;5.20;;
70725;SDS011;58304;53.104;6.022;2023-03-01T05:22:50;10.02;;;4.78;;
70725;SDS011;58304;53.104;6.022;2023-03-01T05:25:16;8.95;;;4.88;;
70725;SDS011;58304;53.104;6.022;2023-03-01T05:27:42;8.73;;;4.68;;
70725;SDS011;58304;53.104;6.022;2023-03-01T05:30:08;8.90;;;4.60;;
70725;SDS011;58304;53.104;6.022;2023-03-01T05:32:47;8.40;;;4.45;;
70725;SDS011;58304;53.104;6.022;2023-03-01T05:35:15;7.88;;;4.40;;
70725;SDS011;58304;53.104;6.022;2023-03-01T05:37:43;9.52;;;4.97;;
70725;SDS011;58304;53.104;6.022;2023-03-01T05:40:11;9.68;;;4.70;;
70725;SDS011;58304;53.104;6.022;2023-03-01T05:42:48;9.68;;;4.72;;
70725;SDS011;58304;53.104;6.022;2023-03-01T05:45:17;10.23;;;4.70;;
70725;SDS011;58304;53.104;6.022;2023-03-01T05:47:44;11.95;;;4.85;;
70725;SDS011;58304;53.104;6.022;2023-03-01T05:50:12;8.88;;;4.35;;
70725;SDS011;58304;53.104;6.022;2023-03-01T05:52:44;11.32;;;4.90;;
70725;SDS011;58304;53.104;6.022;2023-03-01T05:55:15;11.07;;;4.70;;
70725;SDS011;58304;53.104;6.022;2023-03-01T05:57:42;9.55;;;4.68;;
70725;SDS011;58304;53.104;6.022;2023-03-01T06:00:08;9.77;;;5.07;;
70725;SDS011;58304;53.104;6.022;2023-03-01T06:02:35;12.00;;;5.22;;
70725;SDS011;58304;53.104;6.022;2023-03-01T06:05:00;15.80;;;5.65;;
70725;SDS011;58304;53.104;6.022;2023-03-01T06:07:26;18.80;;;5.35;;
70725;SDS011;58304;53.104;6.022;2023-03-01T06:09:51;13.15;;;5.30;;
70725;SDS011;58304;53.104;6.022;2023-03-01T06:12:17;12.32;;;5.82;;
70725;SDS011;58304;53.104;6.022;2023-03-01T06:14:43;27.95;;;5.88;;
70725;SDS011;58304;53.104;6.022;2023-03-01T06:17:09;14.63;;;5.28;;
70725;SDS011;58304;53.104;6.022;2023-03-01T06:19:35;10.77;;;5.05;;
70725;SDS011;58304;53.104;6.022;2023-03-01T06:22:01;10.32;;;5.07;;
70725;SDS011;58304;53.104;6.022;2023-03-01T06:24:26;14.10;;;5.75;;
70725;SDS011;58304;53.104;6.022;2023-03-01T06:26:53;11.35;;;5.50;;
70725;SDS011;58304;53.104;6.022;2023-03-01T06:29:19;12.60;;;5.57;;
70725;SDS011;58304;53.104;6.022;2023-03-01T06:31:45;9.75;;;4.75;;
70725;SDS011;58304;53.104;6.022;2023-03-01T06:34:11;13.50;;;5.70;;
70725;SDS011;58304;53.104;6.022;2023-03-01T06:36:38;20.25;;;5.72;;
70725;SDS011;58304;53.104;6.022;2023-03-01T06:39:04;34.00;;;5.82;;
70725;SDS011;58304;53.104;6.022;2023-03-01T06:41:30;39.97;;;7.78;;
70725;SDS011;58304;53.104;6.022;2023-03-01T06:43:56;12.43;;;5.28;;
70725;SDS011;58304;53.104;6.022;2023-03-01T06:46:22;12.23;;;5.65;;
70725;SDS011;58304;53.104;6.022;2023-03-01T06:48:47;10.95;;;5.55;;
70725;SDS011;58304;53.104;6.022;2023-03-01T06:51:13;15.05;;;5.25;;
70725;SDS011;58304;53.104;6.022;2023-03-01T06:53:38;12.30;;;6.05;;
70725;SDS011;58304;53.104;6.022;2023-03-01T06:56:04;9.45;;;5.00;;
70725;SDS011;58304;53.104;6.022;2023-03-01T06:58:29;18.73;;;5.90;;
70725;SDS011;58304;53.104;6.022;2023-03-01T07:00:55;78.50;;;8.23;;
70725;SDS011;58304;53.104;6.022;2023-03-01T07:03:21;17.08;;;6.40;;
70725;SDS011;58304;53.104;6.022;2023-03-01T07:05:50;11.82;;;6.28;;
70725;SDS011;58304;53.104;6.022;2023-03-01T07:08:19;34.30;;;6.47;;
70725;SDS011;58304;53.104;6.022;2023-03-01T07:10:45;18.50;;;6.53;;
70725;SDS011;58304;53.104;6.022;2023-03-01T07:13:10;13.93;;;6.78;;
70725;SDS011;58304;53.104;6.022;2023-03-01T07:15:36;13.43;;;6.47;;
70725;SDS011;58304;53.104;6.022;2023-03-01T07:18:02;13.93;;;6.95;;
70725;SDS011;58304;53.104;6.022;2023-03-01T07:20:27;14.68;;;7.20;;
70725;SDS011;58304;53.104;6.022;2023-03-01T07:22:54;15.13;;;7.30;;
70725;SDS011;58304;53.104;6.022;2023-03-01T07:25:23;15.02;;;7.13;;
70725;SDS011;58304;53.104;6.022;2023-03-01T07:27:53;15.20;;;7.38;;
70725;SDS011;58304;53.104;6.022;2023-03-01T07:30:19;13.75;;;7.38;;
70725;SDS011;58304;53.104;6.022;2023-03-01T07:32:46;12.82;;;6.93;;
70725;SDS011;58304;53.104;6.022;2023-03-01T07:35:12;15.35;;;7.65;;
70725;SDS011;58304;53.104;6.022;2023-03-01T07:37:39;17.48;;;8.90;;
70725;SDS011;58304;53.104;6.022;2023-03-01T07:40:05;17.13;;;8.60;;
70725;SDS011;58304;53.104;6.022;2023-03-01T07:42:32;14.23;;;8.02;;
70725;SDS011;58304;53.104;6.022;2023-03-01T07:44:58;15.40;;;7.72;;
70725;SDS011;58304;53.104;6.022;2023-03-01T07:47:23;15.45;;;8.20;;
70725;SDS011;58304;53.104;6.022;2023-03-01T07:49:49;15.77;;;8.13;;
70725;SDS011;58304;53.104;6.022;2023-03-01T07:52:14;13.80;;;7.20;;
70725;SDS011;58304;53.104;6.022;2023-03-01T07:54:42;16.08;;;7.25;;
70725;SDS011;58304;53.104;6.022;2023-03-01T07:57:08;15.35;;;7.60;;
70725;SDS011;58304;53.104;6.022;2023-03-01T07:59:33;13.15;;;6.97;;
70725;SDS011;58304;53.104;6.022;2023-03-01T08:06:51;15.00;;;8.75;;
70725;SDS011;58304;53.104;6.022;2023-03-01T08:09:17;15.32;;;8.57;;
70725;SDS011;58304;53.104;6.022;2023-03-01T08:14:09;14.52;;;8.45;;
70725;SDS011;58304;53.104;6.022;2023-03-01T08:16:35;14.95;;;8.23;;
70725;SDS011;58304;53.104;6.022;2023-03-01T08:19:08;14.95;;;8.27;;
70725;SDS011;58304;53.104;6.022;2023-03-01T08:21:35;13.48;;;7.97;;
70725;SDS011;58304;53.104;6.022;2023-03-01T08:24:04;17.80;;;8.35;;
70725;SDS011;58304;53.104;6.022;2023-03-01T08:26:31;17.98;;;8.90;;
70725;SDS011;58304;53.104;6.022;2023-03-01T08:28:57;14.98;;;8.60;;
70725;SDS011;58304;53.104;6.022;2023-03-01T08:31:26;14.10;;;7.47;;
70725;SDS011;58304;53.104;6.022;2023-03-01T08:33:54;14.40;;;8.18;;
70725;SDS011;58304;53.104;6.022;2023-03-01T08:36:24;14.88;;;8.70;;
70725;SDS011;58304;53.104;6.022;2023-03-01T08:38:52;12.77;;;8.07;;
70725;SDS011;58304;53.104;6.022;2023-03-01T08:41:18;14.27;;;8.05;;
70725;SDS011;58304;53.104;6.022;2023-03-01T08:43:44;14.65;;;8.20;;
70725;SDS011;58304;53.104;6.022;2023-03-01T08:46:10;14.98;;;8.60;;
70725;SDS011;58304;53.104;6.022;2023-03-01T08:48:36;16.27;;;7.68;;
70725;SDS011;58304;53.104;6.022;2023-03-01T08:51:12;13.90;;;8.05;;
70725;SDS011;58304;53.104;6.022;2023-03-01T08:53:40;13.57;;;7.97;;
70725;SDS011;58304;53.104;6.022;2023-03-01T08:56:06;13.82;;;7.95;;
70725;SDS011;58304;53.104;6.022;2023-03-01T08:58:33;14.90;;;8.02;;
70725;SDS011;58304;53.104;6.022;2023-03-01T09:00:59;13.20;;;7.80;;
70725;SDS011;58304;53.104;6.022;2023-03-01T09:03:25;14.85;;;8.60;;
70725;SDS011;58304;53.104;6.022;2023-03-01T09:05:51;15.00;;;8.73;;
70725;SDS011;58304;53.104;6.022;2023-03-01T09:08:17;16.13;;;8.60;;
70725;SDS011;58304;53.104;6.022;2023-03-01T09:10:44;12.90;;;7.50;;
70725;SDS011;58304;53.104;6.022;2023-03-01T09:13:10;13.95;;;8.45;;
70725;SDS011;58304;53.104;6.022;2023-03-01T09:15:39;14.82;;;8.23;;
70725;SDS011;58304;53.104;6.022;2023-03-01T09:18:05;15.38;;;9.60;;
70725;SDS011;58304;53.104;6.022;2023-03-01T09:20:31;18.33;;;9.95;;
70725;SDS011;58304;53.104;6.022;2023-03-01T09:22:57;15.98;;;8.80;;
70725;SDS011;58304;53.104;6.022;2023-03-01T09:25:23;16.20;;;9.93;;
70725;SDS011;58304;53.104;6.022;2023-03-01T09:27:53;14.90;;;9.35;;
70725;SDS011;58304;53.104;6.022;2023-03-01T09:30:19;13.88;;;9.43;;
70725;SDS011;58304;53.104;6.022;2023-03-01T09:32:46;14.48;;;9.20;;
70725;SDS011;58304;53.104;6.022;2023-03-01T09:35:12;15.20;;;9.80;;
70725;SDS011;58304;53.104;6.022;2023-03-01T09:37:38;16.92;;;9.75;;
70725;SDS011;58304;53.104;6.022;2023-03-01T09:40:28;15.45;;;10.25;;
70725;SDS011;58304;53.104;6.022;2023-03-01T09:43:06;18.40;;;11.63;;
70725;SDS011;58304;53.104;6.022;2023-03-01T09:45:41;18.15;;;11.98;;
70725;SDS011;58304;53.104;6.022;2023-03-01T09:48:12;15.02;;;9.68;;
70725;SDS011;58304;53.104;6.022;2023-03-01T09:50:43;16.15;;;9.55;;
70725;SDS011;58304;53.104;6.022;2023-03-01T09:53:16;13.25;;;9.13;;
70725;SDS011;58304;53.104;6.022;2023-03-01T09:55:46;14.18;;;9.43;;
70725;SDS011;58304;53.104;6.022;2023-03-01T09:58:25;18.05;;;10.75;;
70725;SDS011;58304;53.104;6.022;2023-03-01T10:01:16;14.52;;;9.45;;
70725;SDS011;58304;53.104;6.022;2023-03-01T10:06:43;15.60;;;10.60;;
70725;SDS011;58304;53.104;6.022;2023-03-01T10:09:16;15.73;;;9.15;;
70725;SDS011;58304;53.104;6.022;2023-03-01T10:11:48;17.45;;;9.70;;
70725;SDS011;58304;53.104;6.022;2023-03-01T10:14:39;15.75;;;9.63;;
70725;SDS011;58304;53.104;6.022;2023-03-01T10:17:23;16.92;;;9.35;;
70725;SDS011;58304;53.104;6.022;2023-03-01T10:19:55;15.13;;;9.85;;
70725;SDS011;58304;53.104;6.022;2023-03-01T10:22:50;13.00;;;8.70;;
70725;SDS011;58304;53.104;6.022;2023-03-01T10:25:54;13.32;;;8.60;;
70725;SDS011;58304;53.104;6.022;2023-03-01T10:28:39;13.52;;;8.15;;
70725;SDS011;58304;53.104;6.022;2023-03-01T10:31:16;11.68;;;7.57;;
70725;SDS011;58304;53.104;6.022;2023-03-01T10:33:47;11.20;;;6.30;;
70725;SDS011;58304;53.104;6.022;2023-03-01T10:36:16;9.07;;;5.63;;
70725;SDS011;58304;53.104;6.022;2023-03-01T10:38:55;10.20;;;6.07;;
70725;SDS011;58304;53.104;6.022;2023-03-01T10:41:23;8.20;;;5.45;;
70725;SDS011;58304;53.104;6.022;2023-03-01T10:43:56;8.38;;;5.35;;
70725;SDS011;58304;53.104;6.022;2023-03-01T10:46:30;9.15;;;5.18;;
70725;SDS011;58304;53.104;6.022;2023-03-01T10:49:12;8.27;;;5.07;;
70725;SDS011;58304;53.104;6.022;2023-03-01T10:51:41;7.78;;;5.18;;
70725;SDS011;58304;53.104;6.022;2023-03-01T10:54:28;10.70;;;4.88;;
70725;SDS011;58304;53.104;6.022;2023-03-01T10:56:56;7.70;;;4.88;;
70725;SDS011;58304;53.104;6.022;2023-03-01T10:59:36;8.07;;;4.80;;
70725;SDS011;58304;53.104;6.022;2023-03-01T11:04:58;8.95;;;4.82;;
70725;SDS011;58304;53.104;6.022;2023-03-01T11:10:01;7.78;;;4.97;;
70725;SDS011;58304;53.104;6.022;2023-03-01T11:12:41;9.00;;;5.00;;
70725;SDS011;58304;53.104;6.022;2023-03-01T11:15:08;8.88;;;5.35;;
70725;SDS011;58304;53.104;6.022;2023-03-01T11:17:50;9.05;;;5.30;;
70725;SDS011;58304;53.104;6.022;2023-03-01T11:22:49;9.07;;;5.32;;
70725;SDS011;58304;53.104;6.022;2023-03-01T11:25:18;9.77;;;5.70;;
70725;SDS011;58304;53.104;6.022;2023-03-01T11:27:47;8.93;;;5.25;;
70725;SDS011;58304;53.104;6.022;2023-03-01T11:30:16;9.57;;;5.78;;
70725;SDS011;58304;53.104;6.022;2023-03-01T11:32:56;9.43;;;5.70;;
70725;SDS011;58304;53.104;6.022;2023-03-01T11:38:09;8.32;;;5.40;;
70725;SDS011;58304;53.104;6.022;2023-03-01T11:41:06;8.90;;;5.68;;
70725;SDS011;58304;53.104;6.022;2023-03-01T11:51:37;13.70;;;7.90;;
70725;SDS011;58304;53.104;6.022;2023-03-01T11:56:45;9.77;;;6.22;;
70725;SDS011;58304;53.104;6.022;2023-03-01T12:05:20;11.82;;;6.25;;
70725;SDS011;58304;53.104;6.022;2023-03-01T12:10:54;9.82;;;6.55;;
70725;SDS011;58304;53.104;6.022;2023-03-01T12:13:49;10.18;;;6.22;;
70725;SDS011;58304;53.104;6.022;2023-03-01T12:16:41;10.13;;;5.95;;
70725;SDS011;58304;53.104;6.022;2023-03-01T12:33:02;10.93;;;6.25;;
70725;SDS011;58304;53.104;6.022;2023-03-01T12:35:36;12.48;;;6.53;;
70725;SDS011;58304;53.104;6.022;2023-03-01T12:46:46;12.70;;;7.38;;
70725;SDS011;58304;53.104;6.022;2023-03-01T12:49:24;12.63;;;7.03;;
70725;SDS011;58304;53.104;6.022;2023-03-01T12:51:59;13.88;;;7.30;;
70725;SDS011;58304;53.104;6.022;2023-03-01T12:54:35;13.82;;;7.35;;
70725;SDS011;58304;53.104;6.022;2023-03-01T13:02:58;13.73;;;7.57;;
70725;SDS011;58304;53.104;6.022;2023-03-01T13:05:39;11.75;;;6.97;;
70725;SDS011;58304;53.104;6.022;2023-03-01T13:11:28;11.23;;;6.10;;
70725;SDS011;58304;53.104;6.022;2023-03-01T13:16:48;11.80;;;6.22;;
70725;SDS011;58304;53.104;6.022;2023-03-01T13:19:24;15.32;;;6.32;;
70725;SDS011;58304;53.104;6.022;2023-03-01T13:21:52;10.45;;;5.85;;
70725;SDS011;58304;53.104;6.022;2023-03-01T13:24:26;11.77;;;6.68;;
70725;SDS011;58304;53.104;6.022;2023-03-01T13:29:43;12.18;;;6.60;;
70725;SDS011;58304;53.104;6.022;2023-03-01T13:34:58;11.50;;;5.97;;
70725;SDS011;58304;53.104;6.022;2023-03-01T13:39:57;10.23;;;6.35;;
70725;SDS011;58304;53.104;6.022;2023-03-01T13:45:01;12.13;;;6.95;;
70725;SDS011;58304;53.104;6.022;2023-03-01T13:47:29;13.18;;;6.70;;
70725;SDS011;58304;53.104;6.022;2023-03-01T13:49:59;11.70;;;6.50;;
70725;SDS011;58304;53.104;6.022;2023-03-01T13:52:39;11.48;;;6.20;;
70725;SDS011;58304;53.104;6.022;2023-03-01T13:57:43;12.63;;;6.22;;
70725;SDS011;58304;53.104;6.022;2023-03-01T14:00:28;14.40;;;6.45;;
70725;SDS011;58304;53.104;6.022;2023-03-01T14:06:00;12.27;;;6.15;;
70725;SDS011;58304;53.104;6.022;2023-03-01T14:08:29;13.07;;;6.97;;
70725;SDS011;58304;53.104;6.022;2023-03-01T14:11:02;11.73;;;6.43;;
70725;SDS011;58304;53.104;6.022;2023-03-01T14:14:08;12.15;;;6.28;;
70725;SDS011;58304;53.104;6.022;2023-03-01T14:17:10;11.35;;;6.00;;
70725;SDS011;58304;53.104;6.022;2023-03-01T14:20:00;10.43;;;5.80;;
70725;SDS011;58304;53.104;6.022;2023-03-01T14:22:34;14.05;;;6.97;;
70725;SDS011;58304;53.104;6.022;2023-03-01T14:25:03;12.38;;;6.45;;
70725;SDS011;58304;53.104;6.022;2023-03-01T14:27:41;13.25;;;6.63;;
70725;SDS011;58304;53.104;6.022;2023-03-01T14:30:21;12.82;;;7.20;;
70725;SDS011;58304;53.104;6.022;2023-03-01T14:33:33;19.42;;;6.63;;
70725;SDS011;58304;53.104;6.022;2023-03-01T14:36:11;10.18;;;5.95;;
70725;SDS011;58304;53.104;6.022;2023-03-01T14:38:38;10.27;;;5.82;;
70725;SDS011;58304;53.104;6.022;2023-03-01T14:41:10;10.40;;;6.07;;
70725;SDS011;58304;53.104;6.022;2023-03-01T14:46:22;10.35;;;5.95;;
70725;SDS011;58304;53.104;6.022;2023-03-01T14:48:57;7.75;;;4.88;;
70725;SDS011;58304;53.104;6.022;2023-03-01T14:51:34;9.48;;;5.22;;
70725;SDS011;58304;53.104;6.022;2023-03-01T14:54:11;9.18;;;5.88;;
70725;SDS011;58304;53.104;6.022;2023-03-01T14:56:46;10.85;;;5.65;;
70725;SDS011;58304;53.104;6.022;2023-03-01T14:59:12;8.23;;;4.80;;
70725;SDS011;58304;53.104;6.022;2023-03-01T15:01:39;10.10;;;5.13;;
70725;SDS011;58304;53.104;6.022;2023-03-01T15:04:08;8.25;;;5.00;;
70725;SDS011;58304;53.104;6.022;2023-03-01T15:06:37;7.32;;;4.18;;
70725;SDS011;58304;53.104;6.022;2023-03-01T15:09:03;7.65;;;3.92;;
70725;SDS011;58304;53.104;6.022;2023-03-01T15:11:30;8.50;;;4.65;;
70725;SDS011;58304;53.104;6.022;2023-03-01T15:13:57;8.95;;;4.72;;
70725;SDS011;58304;53.104;6.022;2023-03-01T15:16:28;8.55;;;4.57;;
70725;SDS011;58304;53.104;6.022;2023-03-01T15:18:56;7.35;;;4.47;;
70725;SDS011;58304;53.104;6.022;2023-03-01T15:21:35;8.82;;;4.38;;
70725;SDS011;58304;53.104;6.022;2023-03-01T15:24:04;7.82;;;4.43;;
70725;SDS011;58304;53.104;6.022;2023-03-01T15:26:45;9.63;;;5.00;;
70725;SDS011;58304;53.104;6.022;2023-03-01T15:29:32;7.78;;;4.60;;
70725;SDS011;58304;53.104;6.022;2023-03-01T15:35:01;8.63;;;5.07;;
70725;SDS011;58304;53.104;6.022;2023-03-01T15:38:22;11.15;;;5.43;;
70725;SDS011;58304;53.104;6.022;2023-03-01T15:41:22;10.73;;;5.68;;
70725;SDS011;58304;53.104;6.022;2023-03-01T15:43:53;10.27;;;5.28;;
70725;SDS011;58304;53.104;6.022;2023-03-01T15:46:26;10.48;;;5.55;;
70725;SDS011;58304;53.104;6.022;2023-03-01T15:48:56;9.02;;;5.30;;
70725;SDS011;58304;53.104;6.022;2023-03-01T15:51:28;8.55;;;5.10;;
70725;SDS011;58304;53.104;6.022;2023-03-01T15:54:03;8.68;;;5.05;;
70725;SDS011;58304;53.104;6.022;2023-03-01T15:56:31;8.25;;;4.78;;
70725;SDS011;58304;53.104;6.022;2023-03-01T15:58:58;10.05;;;5.18;;
70725;SDS011;58304;53.104;6.022;2023-03-01T16:01:24;9.30;;;5.25;;
70725;SDS011;58304;53.104;6.022;2023-03-01T16:03:51;10.00;;;5.68;;
70725;SDS011;58304;53.104;6.022;2023-03-01T16:06:16;9.63;;;5.47;;
70725;SDS011;58304;53.104;6.022;2023-03-01T16:08:42;9.50;;;5.13;;
70725;SDS011;58304;53.104;6.022;2023-03-01T16:11:10;11.32;;;5.55;;
70725;SDS011;58304;53.104;6.022;2023-03-01T16:13:40;9.93;;;5.90;;
70725;SDS011;58304;53.104;6.022;2023-03-01T16:16:06;9.85;;;5.60;;
70725;SDS011;58304;53.104;6.022;2023-03-01T16:18:32;11.82;;;5.93;;
70725;SDS011;58304;53.104;6.022;2023-03-01T16:20:58;12.00;;;6.18;;
70725;SDS011;58304;53.104;6.022;2023-03-01T16:23:25;11.35;;;6.00;;
70725;SDS011;58304;53.104;6.022;2023-03-01T16:25:51;11.80;;;6.38;;
70725;SDS011;58304;53.104;6.022;2023-03-01T16:28:16;14.32;;;7.05;;
70725;SDS011;58304;53.104;6.022;2023-03-01T16:30:45;11.68;;;6.15;;
70725;SDS011;58304;53.104;6.022;2023-03-01T16:33:13;14.02;;;5.80;;
70725;SDS011;58304;53.104;6.022;2023-03-01T16:35:39;11.75;;;6.10;;
70725;SDS011;58304;53.104;6.022;2023-03-01T16:40:46;11.27;;;6.18;;
70725;SDS011;58304;53.104;6.022;2023-03-01T16:43:13;13.70;;;6.20;;
70725;SDS011;58304;53.104;6.022;2023-03-01T16:45:39;10.73;;;5.88;;
70725;SDS011;58304;53.104;6.022;2023-03-01T16:48:05;11.05;;;5.82;;
70725;SDS011;58304;53.104;6.022;2023-03-01T16:50:31;11.27;;;5.60;;
70725;SDS011;58304;53.104;6.022;2023-03-01T16:52:57;10.15;;;5.60;;
70725;SDS011;58304;53.104;6.022;2023-03-01T16:55:23;10.48;;;5.78;;
70725;SDS011;58304;53.104;6.022;2023-03-01T16:57:48;11.20;;;6.00;;